sensor_id;sensor_type;location;lat;lon;timestamp;temperature;humidity
34646;DHT22;20857;47.808;12.482;2022-10-16T00:01:25;13.60;99.90
34646;DHT22;20857;47.808;12.482;2022-10-16T00:03:51;13.70;99.90
34646;DHT22;20857;47.808;12.482;2022-10-16T00:06:19;13.80;99.90
34646;DHT22;20857;47.808;12.482;2022-10-16T00:08:46;13.80;99.90
34646;DHT22;20857;47.808;12.482;2022-10-16T00:11:19;13.80;99.90
34646;DHT22;20857;47.808;12.482;2022-10-16T00:13:46;13.80;99.90
34646;DHT22;20857;47.808;12.482;2022-10-16T00:16:13;13.80;99.90
34646;DHT22;20857;47.808;12.482;2022-10-16T00:18:39;13.70;99.90
34646;DHT22;20857;47.808;12.482;2022-10-16T00:21:14;13.70;99.90
34646;DHT22;20857;47.808;12.482;2022-10-16T00:23:40;13.70;99.90
34646;DHT22;20857;47.808;12.482;2022-10-16T00:26:12;13.60;99.90
34646;DHT22;20857;47.808;12.482;2022-10-16T00:28:38;13.60;99.90
34646;DHT22;20857;47.808;12.482;2022-10-16T00:31:10;13.60;99.90
34646;DHT22;20857;47.808;12.482;2022-10-16T00:33:36;13.60;99.90
34646;DHT22;20857;47.808;12.482;2022-10-16T00:36:03;13.60;99.90
34646;DHT22;20857;47.808;12.482;2022-10-16T00:38:29;13.50;99.90
34646;DHT22;20857;47.808;12.482;2022-10-16T00:40:55;13.50;99.90
34646;DHT22;20857;47.808;12.482;2022-10-16T00:43:41;13.50;99.90
34646;DHT22;20857;47.808;12.482;2022-10-16T00:46:40;13.60;99.90
34646;DHT22;20857;47.808;12.482;2022-10-16T00:54:13;13.70;99.90
34646;DHT22;20857;47.808;12.482;2022-10-16T00:56:41;13.60;99.90
34646;DHT22;20857;47.808;12.482;2022-10-16T00:59:22;13.60;99.90
34646;DHT22;20857;47.808;12.482;2022-10-16T01:01:50;13.50;99.90
34646;DHT22;20857;47.808;12.482;2022-10-16T01:04:16;13.50;99.90
34646;DHT22;20857;47.808;12.482;2022-10-16T01:07:10;13.50;99.90
34646;DHT22;20857;47.808;12.482;2022-10-16T01:09:47;13.40;99.90
34646;DHT22;20857;47.808;12.482;2022-10-16T01:12:27;13.40;99.90
34646;DHT22;20857;47.808;12.482;2022-10-16T01:18:19;13.30;99.90
34646;DHT22;20857;47.808;12.482;2022-10-16T01:31:27;13.30;99.90
34646;DHT22;20857;47.808;12.482;2022-10-16T01:34:32;13.30;99.90
34646;DHT22;20857;47.808;12.482;2022-10-16T01:37:06;13.20;99.90
34646;DHT22;20857;47.808;12.482;2022-10-16T01:39:35;13.20;99.90
34646;DHT22;20857;47.808;12.482;2022-10-16T01:42:12;13.20;99.90
34646;DHT22;20857;47.808;12.482;2022-10-16T01:44:39;13.10;99.90
34646;DHT22;20857;47.808;12.482;2022-10-16T01:47:09;13.10;99.90
34646;DHT22;20857;47.808;12.482;2022-10-16T01:49:36;13.10;99.90
34646;DHT22;20857;47.808;12.482;2022-10-16T01:52:08;13.20;99.90
34646;DHT22;20857;47.808;12.482;2022-10-16T01:54:36;13.20;99.90
34646;DHT22;20857;47.808;12.482;2022-10-16T01:57:04;13.20;99.90
34646;DHT22;20857;47.808;12.482;2022-10-16T01:59:33;13.10;99.90
34646;DHT22;20857;47.808;12.482;2022-10-16T02:02:05;13.10;99.90
34646;DHT22;20857;47.808;12.482;2022-10-16T02:04:34;13.10;99.90
34646;DHT22;20857;47.808;12.482;2022-10-16T02:07:01;13.20;99.90
34646;DHT22;20857;47.808;12.482;2022-10-16T02:09:27;13.10;99.90
34646;DHT22;20857;47.808;12.482;2022-10-16T02:11:55;13.20;99.90
34646;DHT22;20857;47.808;12.482;2022-10-16T02:14:23;13.20;99.90
34646;DHT22;20857;47.808;12.482;2022-10-16T02:16:50;13.10;99.90
34646;DHT22;20857;47.808;12.482;2022-10-16T02:19:17;13.10;99.90
34646;DHT22;20857;47.808;12.482;2022-10-16T02:22:01;13.10;99.90
34646;DHT22;20857;47.808;12.482;2022-10-16T02:27:05;13.20;99.90
34646;DHT22;20857;47.808;12.482;2022-10-16T02:29:38;13.20;99.90
34646;DHT22;20857;47.808;12.482;2022-10-16T02:32:04;13.20;99.90
34646;DHT22;20857;47.808;12.482;2022-10-16T02:34:32;13.20;99.90
34646;DHT22;20857;47.808;12.482;2022-10-16T02:37:01;13.20;99.90
34646;DHT22;20857;47.808;12.482;2022-10-16T02:39:29;13.20;99.90
34646;DHT22;20857;47.808;12.482;2022-10-16T02:41:55;13.30;99.90
34646;DHT22;20857;47.808;12.482;2022-10-16T02:44:20;13.30;99.90
34646;DHT22;20857;47.808;12.482;2022-10-16T02:46:47;13.30;99.90
34646;DHT22;20857;47.808;12.482;2022-10-16T02:49:13;13.20;99.90
34646;DHT22;20857;47.808;12.482;2022-10-16T02:51:38;13.20;99.90
34646;DHT22;20857;47.808;12.482;2022-10-16T02:54:04;13.20;99.90
34646;DHT22;20857;47.808;12.482;2022-10-16T02:56:29;13.20;99.90
34646;DHT22;20857;47.808;12.482;2022-10-16T02:58:56;13.20;99.90
34646;DHT22;20857;47.808;12.482;2022-10-16T03:01:22;13.20;99.90
34646;DHT22;20857;47.808;12.482;2022-10-16T03:03:48;13.20;99.90
34646;DHT22;20857;47.808;12.482;2022-10-16T03:06:13;13.20;99.90
34646;DHT22;20857;47.808;12.482;2022-10-16T03:08:39;13.20;99.90
34646;DHT22;20857;47.808;12.482;2022-10-16T03:11:04;13.20;99.90
34646;DHT22;20857;47.808;12.482;2022-10-16T03:13:30;13.20;99.90
34646;DHT22;20857;47.808;12.482;2022-10-16T03:15:56;13.20;99.90
34646;DHT22;20857;47.808;12.482;2022-10-16T03:18:21;13.20;99.90
34646;DHT22;20857;47.808;12.482;2022-10-16T03:20:47;13.20;99.90
34646;DHT22;20857;47.808;12.482;2022-10-16T03:23:12;13.30;99.90
34646;DHT22;20857;47.808;12.482;2022-10-16T03:25:38;13.30;99.90
34646;DHT22;20857;47.808;12.482;2022-10-16T03:28:04;13.30;99.90
34646;DHT22;20857;47.808;12.482;2022-10-16T03:30:30;13.30;99.90
34646;DHT22;20857;47.808;12.482;2022-10-16T03:32:56;13.30;99.90
34646;DHT22;20857;47.808;12.482;2022-10-16T03:35:22;13.40;99.90
34646;DHT22;20857;47.808;12.482;2022-10-16T03:37:48;13.30;99.90
34646;DHT22;20857;47.808;12.482;2022-10-16T03:40:14;13.30;99.90
34646;DHT22;20857;47.808;12.482;2022-10-16T03:42:41;13.30;99.90
34646;DHT22;20857;47.808;12.482;2022-10-16T03:45:07;13.30;99.90
34646;DHT22;20857;47.808;12.482;2022-10-16T03:47:33;13.20;99.90
34646;DHT22;20857;47.808;12.482;2022-10-16T03:49:59;13.30;99.90
34646;DHT22;20857;47.808;12.482;2022-10-16T03:52:25;13.10;99.90
34646;DHT22;20857;47.808;12.482;2022-10-16T03:54:51;13.20;99.90
34646;DHT22;20857;47.808;12.482;2022-10-16T03:57:17;13.20;99.90
34646;DHT22;20857;47.808;12.482;2022-10-16T03:59:42;13.10;99.90
34646;DHT22;20857;47.808;12.482;2022-10-16T04:02:08;13.10;99.90
34646;DHT22;20857;47.808;12.482;2022-10-16T04:04:34;13.10;99.90
34646;DHT22;20857;47.808;12.482;2022-10-16T04:07:00;13.10;99.90
34646;DHT22;20857;47.808;12.482;2022-10-16T04:09:26;13.00;99.90
34646;DHT22;20857;47.808;12.482;2022-10-16T04:11:51;13.00;99.90
34646;DHT22;20857;47.808;12.482;2022-10-16T04:14:17;13.00;99.90
34646;DHT22;20857;47.808;12.482;2022-10-16T04:16:42;13.00;99.90
34646;DHT22;20857;47.808;12.482;2022-10-16T04:19:09;13.00;99.90
34646;DHT22;20857;47.808;12.482;2022-10-16T04:21:35;13.00;99.90
34646;DHT22;20857;47.808;12.482;2022-10-16T04:24:00;13.00;99.90
34646;DHT22;20857;47.808;12.482;2022-10-16T04:26:26;12.90;99.90
34646;DHT22;20857;47.808;12.482;2022-10-16T04:28:52;12.90;99.90
34646;DHT22;20857;47.808;12.482;2022-10-16T04:31:17;12.90;99.90
34646;DHT22;20857;47.808;12.482;2022-10-16T04:33:43;12.90;99.90
34646;DHT22;20857;47.808;12.482;2022-10-16T04:36:09;12.90;99.90
34646;DHT22;20857;47.808;12.482;2022-10-16T04:38:35;13.00;99.90
34646;DHT22;20857;47.808;12.482;2022-10-16T04:41:03;12.90;99.90
34646;DHT22;20857;47.808;12.482;2022-10-16T04:43:29;12.90;99.90
34646;DHT22;20857;47.808;12.482;2022-10-16T04:45:54;12.90;99.90
34646;DHT22;20857;47.808;12.482;2022-10-16T04:48:20;12.90;99.90
34646;DHT22;20857;47.808;12.482;2022-10-16T04:50:46;12.80;99.90
34646;DHT22;20857;47.808;12.482;2022-10-16T04:53:11;12.80;99.90
34646;DHT22;20857;47.808;12.482;2022-10-16T04:55:37;12.80;99.90
34646;DHT22;20857;47.808;12.482;2022-10-16T04:58:03;12.80;99.90
34646;DHT22;20857;47.808;12.482;2022-10-16T05:00:29;12.80;99.90
34646;DHT22;20857;47.808;12.482;2022-10-16T05:02:55;12.80;99.90
34646;DHT22;20857;47.808;12.482;2022-10-16T05:05:20;12.80;99.90
34646;DHT22;20857;47.808;12.482;2022-10-16T05:07:47;12.80;99.90
34646;DHT22;20857;47.808;12.482;2022-10-16T05:10:13;12.70;99.90
34646;DHT22;20857;47.808;12.482;2022-10-16T05:12:39;12.70;99.90
34646;DHT22;20857;47.808;12.482;2022-10-16T05:15:05;12.80;99.90
34646;DHT22;20857;47.808;12.482;2022-10-16T05:17:30;12.60;99.90
34646;DHT22;20857;47.808;12.482;2022-10-16T05:19:56;12.60;99.90
34646;DHT22;20857;47.808;12.482;2022-10-16T05:22:21;12.60;99.90
34646;DHT22;20857;47.808;12.482;2022-10-16T05:24:47;12.60;99.90
34646;DHT22;20857;47.808;12.482;2022-10-16T05:27:13;12.50;99.90
34646;DHT22;20857;47.808;12.482;2022-10-16T05:29:47;12.50;99.90
34646;DHT22;20857;47.808;12.482;2022-10-16T05:32:14;12.50;99.90
34646;DHT22;20857;47.808;12.482;2022-10-16T05:34:40;12.60;99.90
34646;DHT22;20857;47.808;12.482;2022-10-16T05:37:06;12.60;99.90
34646;DHT22;20857;47.808;12.482;2022-10-16T05:39:32;12.70;99.90
34646;DHT22;20857;47.808;12.482;2022-10-16T05:41:57;12.70;99.90
34646;DHT22;20857;47.808;12.482;2022-10-16T05:44:23;12.80;99.90
34646;DHT22;20857;47.808;12.482;2022-10-16T05:46:48;12.80;99.90
34646;DHT22;20857;47.808;12.482;2022-10-16T05:49:14;12.80;99.90
34646;DHT22;20857;47.808;12.482;2022-10-16T05:51:40;12.80;99.90
34646;DHT22;20857;47.808;12.482;2022-10-16T05:54:06;12.90;99.90
34646;DHT22;20857;47.808;12.482;2022-10-16T05:56:32;12.80;99.90
34646;DHT22;20857;47.808;12.482;2022-10-16T05:58:57;12.90;99.90
34646;DHT22;20857;47.808;12.482;2022-10-16T06:01:23;12.90;99.90
34646;DHT22;20857;47.808;12.482;2022-10-16T06:03:51;13.00;99.90
34646;DHT22;20857;47.808;12.482;2022-10-16T06:06:19;13.00;99.90
34646;DHT22;20857;47.808;12.482;2022-10-16T06:08:47;13.10;99.90
34646;DHT22;20857;47.808;12.482;2022-10-16T06:11:19;13.20;99.90
34646;DHT22;20857;47.808;12.482;2022-10-16T06:13:44;13.30;99.90
34646;DHT22;20857;47.808;12.482;2022-10-16T06:16:12;13.40;99.90
34646;DHT22;20857;47.808;12.482;2022-10-16T06:18:38;13.50;99.90
34646;DHT22;20857;47.808;12.482;2022-10-16T06:21:08;13.60;99.90
34646;DHT22;20857;47.808;12.482;2022-10-16T06:23:35;13.70;99.90
34646;DHT22;20857;47.808;12.482;2022-10-16T06:26:11;13.70;99.90
34646;DHT22;20857;47.808;12.482;2022-10-16T06:28:38;13.80;99.90
34646;DHT22;20857;47.808;12.482;2022-10-16T06:31:05;13.90;99.90
34646;DHT22;20857;47.808;12.482;2022-10-16T06:33:31;14.00;99.90
34646;DHT22;20857;47.808;12.482;2022-10-16T06:36:05;14.10;99.90
34646;DHT22;20857;47.808;12.482;2022-10-16T06:38:31;14.20;99.90
34646;DHT22;20857;47.808;12.482;2022-10-16T06:40:58;14.40;99.90
34646;DHT22;20857;47.808;12.482;2022-10-16T06:43:24;14.40;99.90
34646;DHT22;20857;47.808;12.482;2022-10-16T06:45:56;14.50;99.90
34646;DHT22;20857;47.808;12.482;2022-10-16T06:48:24;14.50;99.90
34646;DHT22;20857;47.808;12.482;2022-10-16T06:53:29;14.60;99.90
34646;DHT22;20857;47.808;12.482;2022-10-16T06:55:55;14.60;99.90
34646;DHT22;20857;47.808;12.482;2022-10-16T06:58:21;14.60;99.90
34646;DHT22;20857;47.808;12.482;2022-10-16T07:00:47;14.50;99.90
34646;DHT22;20857;47.808;12.482;2022-10-16T07:03:13;14.60;99.90
34646;DHT22;20857;47.808;12.482;2022-10-16T07:05:40;14.50;99.90
34646;DHT22;20857;47.808;12.482;2022-10-16T07:08:05;14.50;99.90
34646;DHT22;20857;47.808;12.482;2022-10-16T07:10:32;14.50;99.90
34646;DHT22;20857;47.808;12.482;2022-10-16T07:12:59;14.50;99.90
34646;DHT22;20857;47.808;12.482;2022-10-16T07:15:26;14.60;99.90
34646;DHT22;20857;47.808;12.482;2022-10-16T07:17:52;14.80;99.90
34646;DHT22;20857;47.808;12.482;2022-10-16T07:20:18;14.90;99.90
34646;DHT22;20857;47.808;12.482;2022-10-16T07:22:43;14.90;99.90
34646;DHT22;20857;47.808;12.482;2022-10-16T07:25:09;15.10;99.90
34646;DHT22;20857;47.808;12.482;2022-10-16T07:27:36;15.20;99.90
34646;DHT22;20857;47.808;12.482;2022-10-16T07:30:02;15.40;99.90
34646;DHT22;20857;47.808;12.482;2022-10-16T07:32:28;15.70;99.90
34646;DHT22;20857;47.808;12.482;2022-10-16T07:34:54;15.90;99.90
34646;DHT22;20857;47.808;12.482;2022-10-16T07:37:22;16.00;99.90
34646;DHT22;20857;47.808;12.482;2022-10-16T07:39:47;16.20;99.90
34646;DHT22;20857;47.808;12.482;2022-10-16T07:42:13;16.20;99.90
34646;DHT22;20857;47.808;12.482;2022-10-16T07:44:38;16.30;99.90
34646;DHT22;20857;47.808;12.482;2022-10-16T07:47:05;16.20;99.90
34646;DHT22;20857;47.808;12.482;2022-10-16T07:49:31;16.30;99.90
34646;DHT22;20857;47.808;12.482;2022-10-16T07:51:56;16.30;99.90
34646;DHT22;20857;47.808;12.482;2022-10-16T07:54:22;16.20;99.90
34646;DHT22;20857;47.808;12.482;2022-10-16T07:56:47;16.30;99.90
34646;DHT22;20857;47.808;12.482;2022-10-16T07:59:13;16.20;99.90
34646;DHT22;20857;47.808;12.482;2022-10-16T08:01:39;16.10;99.90
34646;DHT22;20857;47.808;12.482;2022-10-16T08:04:05;16.10;99.90
34646;DHT22;20857;47.808;12.482;2022-10-16T08:06:35;16.10;99.90
34646;DHT22;20857;47.808;12.482;2022-10-16T08:09:02;16.10;99.90
34646;DHT22;20857;47.808;12.482;2022-10-16T08:11:27;16.20;99.90
34646;DHT22;20857;47.808;12.482;2022-10-16T08:13:53;16.20;99.90
34646;DHT22;20857;47.808;12.482;2022-10-16T08:16:19;16.30;99.90
34646;DHT22;20857;47.808;12.482;2022-10-16T08:18:45;16.20;99.90
34646;DHT22;20857;47.808;12.482;2022-10-16T08:21:16;16.30;99.90
34646;DHT22;20857;47.808;12.482;2022-10-16T08:23:42;16.40;99.90
34646;DHT22;20857;47.808;12.482;2022-10-16T08:26:09;16.40;99.90
34646;DHT22;20857;47.808;12.482;2022-10-16T08:28:36;16.50;99.90
34646;DHT22;20857;47.808;12.482;2022-10-16T08:31:10;16.50;99.90
34646;DHT22;20857;47.808;12.482;2022-10-16T08:33:38;16.60;99.90
34646;DHT22;20857;47.808;12.482;2022-10-16T08:36:05;16.60;99.90
34646;DHT22;20857;47.808;12.482;2022-10-16T08:38:31;16.60;99.90
34646;DHT22;20857;47.808;12.482;2022-10-16T08:44:23;16.70;99.90
34646;DHT22;20857;47.808;12.482;2022-10-16T08:49:30;17.00;99.90
34646;DHT22;20857;47.808;12.482;2022-10-16T08:51:56;17.20;99.90
34646;DHT22;20857;47.808;12.482;2022-10-16T08:54:35;17.20;99.90
34646;DHT22;20857;47.808;12.482;2022-10-16T08:57:20;17.30;99.90
34646;DHT22;20857;47.808;12.482;2022-10-16T08:59:48;17.30;99.90
34646;DHT22;20857;47.808;12.482;2022-10-16T09:07:35;17.50;99.90
34646;DHT22;20857;47.808;12.482;2022-10-16T09:18:32;17.80;99.90
34646;DHT22;20857;47.808;12.482;2022-10-16T09:23:35;17.90;99.90
34646;DHT22;20857;47.808;12.482;2022-10-16T09:26:02;17.90;99.90
34646;DHT22;20857;47.808;12.482;2022-10-16T09:28:29;18.00;99.90
34646;DHT22;20857;47.808;12.482;2022-10-16T09:30:54;18.00;99.90
34646;DHT22;20857;47.808;12.482;2022-10-16T09:33:33;18.10;99.90
34646;DHT22;20857;47.808;12.482;2022-10-16T09:36:03;18.10;99.90
34646;DHT22;20857;47.808;12.482;2022-10-16T09:38:31;18.20;99.90
34646;DHT22;20857;47.808;12.482;2022-10-16T09:41:01;18.40;99.90
34646;DHT22;20857;47.808;12.482;2022-10-16T09:44:02;18.40;99.90
34646;DHT22;20857;47.808;12.482;2022-10-16T09:46:31;18.40;99.90
34646;DHT22;20857;47.808;12.482;2022-10-16T09:49:01;18.50;99.90
34646;DHT22;20857;47.808;12.482;2022-10-16T09:51:35;18.50;99.90
34646;DHT22;20857;47.808;12.482;2022-10-16T09:54:14;18.60;99.90
34646;DHT22;20857;47.808;12.482;2022-10-16T09:56:41;18.70;99.90
34646;DHT22;20857;47.808;12.482;2022-10-16T09:59:21;18.80;99.90
34646;DHT22;20857;47.808;12.482;2022-10-16T10:01:53;18.90;99.90
34646;DHT22;20857;47.808;12.482;2022-10-16T10:04:22;18.90;99.90
34646;DHT22;20857;47.808;12.482;2022-10-16T10:06:50;19.10;99.90
34646;DHT22;20857;47.808;12.482;2022-10-16T10:09:22;19.20;99.90
34646;DHT22;20857;47.808;12.482;2022-10-16T10:11:56;19.30;99.90
34646;DHT22;20857;47.808;12.482;2022-10-16T10:14:35;19.40;99.90
34646;DHT22;20857;47.808;12.482;2022-10-16T10:19:41;19.50;99.90
34646;DHT22;20857;47.808;12.482;2022-10-16T10:22:23;19.60;99.90
34646;DHT22;20857;47.808;12.482;2022-10-16T10:30:37;19.80;99.90
34646;DHT22;20857;47.808;12.482;2022-10-16T10:41:32;20.40;99.90
34646;DHT22;20857;47.808;12.482;2022-10-16T10:44:10;20.50;99.90
34646;DHT22;20857;47.808;12.482;2022-10-16T10:46:56;20.60;99.90
34646;DHT22;20857;47.808;12.482;2022-10-16T10:49:44;20.70;99.90
34646;DHT22;20857;47.808;12.482;2022-10-16T10:58:01;20.80;99.90
34646;DHT22;20857;47.808;12.482;2022-10-16T11:03:40;20.90;99.90
34646;DHT22;20857;47.808;12.482;2022-10-16T11:08:43;21.20;99.90
34646;DHT22;20857;47.808;12.482;2022-10-16T11:11:24;21.20;99.90
34646;DHT22;20857;47.808;12.482;2022-10-16T11:17:16;21.30;99.90
34646;DHT22;20857;47.808;12.482;2022-10-16T11:19:55;21.40;99.90
34646;DHT22;20857;47.808;12.482;2022-10-16T11:22:24;21.40;99.90
34646;DHT22;20857;47.808;12.482;2022-10-16T11:28:41;21.60;99.90
34646;DHT22;20857;47.808;12.482;2022-10-16T11:30:51;21.60;99.90
34646;DHT22;20857;47.808;12.482;2022-10-16T11:38:32;21.50;99.90
34646;DHT22;20857;47.808;12.482;2022-10-16T11:41:15;21.50;99.90
34646;DHT22;20857;47.808;12.482;2022-10-16T11:43:58;21.60;99.90
34646;DHT22;20857;47.808;12.482;2022-10-16T11:46:28;21.50;99.90
34646;DHT22;20857;47.808;12.482;2022-10-16T11:49:14;21.60;99.90
34646;DHT22;20857;47.808;12.482;2022-10-16T11:51:43;21.70;99.90
34646;DHT22;20857;47.808;12.482;2022-10-16T11:54:35;21.70;99.90
34646;DHT22;20857;47.808;12.482;2022-10-16T11:57:18;21.80;99.90
34646;DHT22;20857;47.808;12.482;2022-10-16T11:59:51;21.80;99.90
34646;DHT22;20857;47.808;12.482;2022-10-16T12:08:10;21.70;99.90
34646;DHT22;20857;47.808;12.482;2022-10-16T12:10:38;21.70;99.90
34646;DHT22;20857;47.808;12.482;2022-10-16T12:13:25;21.70;99.90
34646;DHT22;20857;47.808;12.482;2022-10-16T12:15:50;21.60;99.90
34646;DHT22;20857;47.808;12.482;2022-10-16T12:18:23;21.60;99.90
34646;DHT22;20857;47.808;12.482;2022-10-16T12:20:57;21.60;99.90
34646;DHT22;20857;47.808;12.482;2022-10-16T12:23:32;21.60;99.90
34646;DHT22;20857;47.808;12.482;2022-10-16T12:25:59;21.60;99.90
34646;DHT22;20857;47.808;12.482;2022-10-16T12:28:30;21.60;99.90
34646;DHT22;20857;47.808;12.482;2022-10-16T12:31:02;21.60;99.90
34646;DHT22;20857;47.808;12.482;2022-10-16T12:33:30;21.70;99.90
34646;DHT22;20857;47.808;12.482;2022-10-16T12:35:59;21.80;99.90
34646;DHT22;20857;47.808;12.482;2022-10-16T12:38:28;21.80;99.90
34646;DHT22;20857;47.808;12.482;2022-10-16T12:41:02;21.80;99.90
34646;DHT22;20857;47.808;12.482;2022-10-16T12:43:42;21.80;99.90
34646;DHT22;20857;47.808;12.482;2022-10-16T12:48:34;21.60;99.90
34646;DHT22;20857;47.808;12.482;2022-10-16T12:53:36;21.70;99.90
34646;DHT22;20857;47.808;12.482;2022-10-16T12:56:30;21.80;99.90
34646;DHT22;20857;47.808;12.482;2022-10-16T12:59:10;21.80;99.90
34646;DHT22;20857;47.808;12.482;2022-10-16T13:01:54;21.80;99.90
34646;DHT22;20857;47.808;12.482;2022-10-16T13:04:36;21.80;99.90
34646;DHT22;20857;47.808;12.482;2022-10-16T13:15:39;21.90;99.90
34646;DHT22;20857;47.808;12.482;2022-10-16T13:18:17;21.70;99.90
34646;DHT22;20857;47.808;12.482;2022-10-16T13:21:09;21.70;99.90
34646;DHT22;20857;47.808;12.482;2022-10-16T13:24:00;21.80;99.90
34646;DHT22;20857;47.808;12.482;2022-10-16T13:26:53;21.70;99.90
34646;DHT22;20857;47.808;12.482;2022-10-16T13:29:20;21.60;99.90
34646;DHT22;20857;47.808;12.482;2022-10-16T13:31:46;21.70;99.90
34646;DHT22;20857;47.808;12.482;2022-10-16T13:34:17;21.80;99.90
34646;DHT22;20857;47.808;12.482;2022-10-16T13:36:46;22.00;99.90
34646;DHT22;20857;47.808;12.482;2022-10-16T13:39:27;22.00;99.90
34646;DHT22;20857;47.808;12.482;2022-10-16T13:42:03;22.00;99.90
34646;DHT22;20857;47.808;12.482;2022-10-16T13:44:34;22.20;99.90
34646;DHT22;20857;47.808;12.482;2022-10-16T13:47:02;22.20;99.90
34646;DHT22;20857;47.808;12.482;2022-10-16T13:49:27;22.10;99.90
34646;DHT22;20857;47.808;12.482;2022-10-16T13:51:59;22.30;99.90
34646;DHT22;20857;47.808;12.482;2022-10-16T13:54:26;22.50;99.90
34646;DHT22;20857;47.808;12.482;2022-10-16T13:56:54;22.70;99.90
34646;DHT22;20857;47.808;12.482;2022-10-16T13:59:25;23.00;99.90
34646;DHT22;20857;47.808;12.482;2022-10-16T14:01:54;23.20;99.90
34646;DHT22;20857;47.808;12.482;2022-10-16T14:04:21;23.00;99.90
34646;DHT22;20857;47.808;12.482;2022-10-16T14:06:49;22.90;99.90
34646;DHT22;20857;47.808;12.482;2022-10-16T14:09:23;22.80;99.90
34646;DHT22;20857;47.808;12.482;2022-10-16T14:11:52;22.80;99.90
34646;DHT22;20857;47.808;12.482;2022-10-16T14:14:19;22.70;99.90
34646;DHT22;20857;47.808;12.482;2022-10-16T14:16:45;22.60;99.90
34646;DHT22;20857;47.808;12.482;2022-10-16T14:19:21;22.60;99.90
34646;DHT22;20857;47.808;12.482;2022-10-16T14:21:49;22.40;99.90
34646;DHT22;20857;47.808;12.482;2022-10-16T14:26:55;22.10;99.90
34646;DHT22;20857;47.808;12.482;2022-10-16T14:29:23;22.20;99.90
34646;DHT22;20857;47.808;12.482;2022-10-16T14:32:00;22.10;99.90
34646;DHT22;20857;47.808;12.482;2022-10-16T14:36:55;22.10;99.90
34646;DHT22;20857;47.808;12.482;2022-10-16T14:39:22;22.00;99.90
34646;DHT22;20857;47.808;12.482;2022-10-16T14:41:50;22.00;99.90
34646;DHT22;20857;47.808;12.482;2022-10-16T14:44:18;22.00;99.90
34646;DHT22;20857;47.808;12.482;2022-10-16T14:46:45;21.90;99.90
34646;DHT22;20857;47.808;12.482;2022-10-16T14:51:38;21.90;99.90
34646;DHT22;20857;47.808;12.482;2022-10-16T14:54:04;21.90;99.90
34646;DHT22;20857;47.808;12.482;2022-10-16T14:56:53;21.80;99.90
34646;DHT22;20857;47.808;12.482;2022-10-16T14:59:33;21.60;99.90
34646;DHT22;20857;47.808;12.482;2022-10-16T15:04:47;21.50;99.90
34646;DHT22;20857;47.808;12.482;2022-10-16T15:07:12;21.40;99.90
34646;DHT22;20857;47.808;12.482;2022-10-16T15:09:38;21.40;99.90
34646;DHT22;20857;47.808;12.482;2022-10-16T15:12:05;21.40;99.90
34646;DHT22;20857;47.808;12.482;2022-10-16T15:14:30;21.30;99.90
34646;DHT22;20857;47.808;12.482;2022-10-16T15:16:56;21.30;99.90
34646;DHT22;20857;47.808;12.482;2022-10-16T15:19:22;21.20;99.90
34646;DHT22;20857;47.808;12.482;2022-10-16T15:21:47;21.10;99.90
34646;DHT22;20857;47.808;12.482;2022-10-16T15:24:14;21.10;99.90
34646;DHT22;20857;47.808;12.482;2022-10-16T15:26:40;21.00;99.90
34646;DHT22;20857;47.808;12.482;2022-10-16T15:29:05;20.80;99.90
34646;DHT22;20857;47.808;12.482;2022-10-16T15:31:31;20.70;99.90
34646;DHT22;20857;47.808;12.482;2022-10-16T15:33:57;20.50;99.90
34646;DHT22;20857;47.808;12.482;2022-10-16T15:36:34;20.30;99.90
34646;DHT22;20857;47.808;12.482;2022-10-16T15:39:02;20.10;99.90
34646;DHT22;20857;47.808;12.482;2022-10-16T15:41:28;19.80;99.90
34646;DHT22;20857;47.808;12.482;2022-10-16T15:43:54;19.50;99.90
34646;DHT22;20857;47.808;12.482;2022-10-16T15:46:21;19.30;99.90
34646;DHT22;20857;47.808;12.482;2022-10-16T15:48:49;19.00;99.90
34646;DHT22;20857;47.808;12.482;2022-10-16T15:51:16;18.80;99.90
34646;DHT22;20857;47.808;12.482;2022-10-16T15:53:42;18.70;99.90
34646;DHT22;20857;47.808;12.482;2022-10-16T15:56:09;18.60;99.90
34646;DHT22;20857;47.808;12.482;2022-10-16T15:58:35;18.50;99.90
34646;DHT22;20857;47.808;12.482;2022-10-16T16:01:01;18.30;99.90
34646;DHT22;20857;47.808;12.482;2022-10-16T16:03:28;18.10;99.90
34646;DHT22;20857;47.808;12.482;2022-10-16T16:05:54;17.90;99.90
34646;DHT22;20857;47.808;12.482;2022-10-16T16:08:19;17.80;99.90
34646;DHT22;20857;47.808;12.482;2022-10-16T16:10:45;17.60;99.90
34646;DHT22;20857;47.808;12.482;2022-10-16T16:13:11;17.40;99.90
34646;DHT22;20857;47.808;12.482;2022-10-16T16:15:40;17.20;99.90
34646;DHT22;20857;47.808;12.482;2022-10-16T16:18:07;17.10;99.90
34646;DHT22;20857;47.808;12.482;2022-10-16T16:20:34;16.90;99.90
34646;DHT22;20857;47.808;12.482;2022-10-16T16:23:00;16.80;99.90
34646;DHT22;20857;47.808;12.482;2022-10-16T16:25:25;16.60;99.90
34646;DHT22;20857;47.808;12.482;2022-10-16T16:27:51;16.50;99.90
34646;DHT22;20857;47.808;12.482;2022-10-16T16:30:17;16.40;99.90
34646;DHT22;20857;47.808;12.482;2022-10-16T16:32:46;16.20;99.90
34646;DHT22;20857;47.808;12.482;2022-10-16T16:35:11;16.10;99.90
34646;DHT22;20857;47.808;12.482;2022-10-16T16:37:39;16.00;99.90
34646;DHT22;20857;47.808;12.482;2022-10-16T16:40:06;15.90;99.90
34646;DHT22;20857;47.808;12.482;2022-10-16T16:42:34;15.80;99.90
34646;DHT22;20857;47.808;12.482;2022-10-16T16:45:00;15.70;99.90
34646;DHT22;20857;47.808;12.482;2022-10-16T16:47:26;15.60;99.90
34646;DHT22;20857;47.808;12.482;2022-10-16T16:49:52;15.50;99.90
34646;DHT22;20857;47.808;12.482;2022-10-16T16:52:17;15.50;99.90
34646;DHT22;20857;47.808;12.482;2022-10-16T16:54:48;15.40;99.90
34646;DHT22;20857;47.808;12.482;2022-10-16T16:57:20;15.30;99.90
34646;DHT22;20857;47.808;12.482;2022-10-16T16:59:46;15.30;99.90
34646;DHT22;20857;47.808;12.482;2022-10-16T17:02:12;15.30;99.90
34646;DHT22;20857;47.808;12.482;2022-10-16T17:04:38;15.30;99.90
34646;DHT22;20857;47.808;12.482;2022-10-16T17:07:07;15.20;99.90
34646;DHT22;20857;47.808;12.482;2022-10-16T17:09:32;15.20;99.90
34646;DHT22;20857;47.808;12.482;2022-10-16T17:11:59;15.10;99.90
34646;DHT22;20857;47.808;12.482;2022-10-16T17:14:24;15.30;99.90
34646;DHT22;20857;47.808;12.482;2022-10-16T17:16:51;15.10;99.90
34646;DHT22;20857;47.808;12.482;2022-10-16T17:19:19;15.00;99.90
34646;DHT22;20857;47.808;12.482;2022-10-16T17:21:49;14.90;99.90
34646;DHT22;20857;47.808;12.482;2022-10-16T17:24:15;14.80;99.90